Arroyo, PR (00714)

4:44 PM AST on May 03, 2015 (GMT -0400)
Urb. Arroyo Villages | | Change Station
CLOSE
Current Station
Personal Weather Station
Location: Bo. Ancones, Arroyo, PR
Elevation: 120 ft
Nearby Weather Stations

Elev 120 ft 17.99 °N, 66.05 °W | Updated 6 minutes ago

Scattered Clouds
Scattered Clouds
85.0 °F
Feels Like 92 °F
N
5.0
Wind Variable Wind from ESE
Gusts 10.0 mph

Today
High -- | Low -- °F
--% Chance of Precip.
Yesterday
High -- | Low -- °F
Precip. -- in
5:56 AM 6:45 PM
Full, 100% visible
Pressure 29.94 in
Visibility 10.0 miles
Clouds Scattered Clouds 4800 ft
Heat Index 92 °F
Dew Point 74 °F
Humidity 69%
Rainfall 0.00 in
Snow Depth Not available.
UV 4 out of 12
Pollen Not available.
Air Quality Not available.
Flu Activity Local Activity
METAR TJSJ 031956Z 14011G19KT 10SM SCT048 33/21 A2994 RMK AO2 SLP138 T03280206 $

More Conditions Fewer Conditions

Pressure 29.94 in
Visibility 10.0 miles
Clouds Scattered Clouds 4800 ft
Heat Index 92 °F
Dew Point 74 °F
Humidity 69%
Rainfall 0.00 in
Snow Depth Not available.
UV 4 out of 12
Pollen Not available.
Air Quality Not available.
Flu Activity Local Activity
METAR TJSJ 031956Z 14011G19KT 10SM SCT048 33/21 A2994 RMK AO2 SLP138 T03280206 $

More Conditions Fewer Conditions

10-Day Weather Forecast

Almanac

Astronomy

May. 03, 2015 Rise Set
Actual Time
Civil Twilight
Nautical Twilight
Astronomical Twilight
Moon
Length of Visible Light
Length of Day
Tomorrow will be .
, % of the Moon is Illuminated

Today's Extremes

State Highs State Lows

Community

WunderPhotos

Upload Photos

1,818,364 photos uploaded!

WunderBlogs® & News

Nearby

Air Quality

  Air Quality AQ Index Pollutant
Not available.

Snow Depth

Station Depth Elevation

Earthquake Activity

City Distance Mag. Time & Date
Minimum magnitude displayed is 2.5.

Coastal Water Temperatures

Place Temperature

Stations

Nearby Weather Stations

Station Location Temp. Windchill Dew Point Humidity Wind Precip. Elev Updated Type